• Join FlightAware (Why Join?)
  • Login
  • US Flag 
10:44AM EST


 

Airport Tracker/Info


-or-


 

Live Flight TrackerFlight Track Log ✈ UAL4679 ✈ 21-Apr-2013 ✈ KBTV - KEWR

Flight Track Log - Related Links

Times and Time Zones

All times are in EDT time to prevent confusion due to time zone crossing. See the UAL4679 flight status page for this flight to view local times or setup timezone preferences in your user account.

Time Position Orientation Groundspeed Altitude Reporting Facility
EDT Latitude Longitude Course Direction KTS MPH feet Rate Location/Type
09:49AM 44.2555 -73.2178 196° South  Level FlightAware Approximate
09:49AM 44.4478 -73.3008 196° South 255 293 6,200  Level Boston Center
09:50AM 44.1887 -73.2528 190° South  Level FlightAware Approximate
09:50AM 44.4117 -73.3875 240° Southwest 250 288 8,900  Level Boston Center
09:51AM 44.1176 -73.2706 190° South  Level FlightAware Approximate
09:51AM 44.3733 -73.4797 240° Southwest 270 311 10,300  Level Boston Center
09:52AM 44.0469 -73.2913 196° South  Level FlightAware Approximate
09:52AM 44.3306 -73.5894 241° Southwest 309 356 11,700  Level Boston Center
09:53AM 43.9775 -73.3191 196° South  Level FlightAware Approximate
09:53AM 44.2567 -73.6864 223° Southwest 340 391 13,700  Level Boston Center
09:54AM 43.9080 -73.3468 196° South  Level FlightAware Approximate
09:54AM 44.1586 -73.6903 182° South 326 375 15,800  Level Boston Center
09:55AM 44.0589 -73.6822 177° South 347 399 17,300 1,200 Climbing Boston Center
09:56AM 43.9567 -73.6772 178° South 365 420 18,200 1,020 Climbing Boston Center
09:57AM 43.8547 -73.6667 176° South 365 420 19,400 1,140 Climbing Boston Center
09:58AM 43.7506 -73.6617 178° South 375 432 20,500 1,080 Climbing Boston Center
09:59AM 43.6403 -73.6508 176° South 387 445 21,600 720 Climbing Boston Center
10:00AM 43.5300 -73.6400 176° South 392 451 22,000 180 Climbing Boston Center
10:01AM 43.4133 -73.6292 176° South 405 466 22,000  Level Boston Center
10:02AM 43.2989 -73.6211 177° South 417 480 22,000  Level Boston Center
10:03AM 43.1800 -73.6217 180° South 422 486 22,000 -300 Level Boston Center
10:04AM 43.0733 -73.6650 197° South 405 466 21,400 -960 Descending Boston Center
10:05AM 42.9728 -73.7086 198° South 400 460 20,100 -1,500 Descending Boston Center
10:06AM 42.8828 -73.7464 197° South 390 449 18,500 -1,680 Descending Boston Center
10:07AM 42.7842 -73.7953 200° South 385 443 16,800 -1,260 Descending Boston Center
10:08AM 42.6772 -73.8381 196° South 374 430 16,000 -420 Descending Boston Center
10:09AM 42.5853 -73.8756 197° South 374 430 16,000  Level Boston Center
10:10AM 42.4783 -73.9236 198° South 374 430 16,000  Level Boston Center
10:11AM 42.3922 -73.9636 199° South 374 430 16,000  Level Boston Center
10:12AM 42.2833 -74.0117 198° South 374 430 16,000  Level Boston Center
10:13AM 42.1953 -74.0486 197° South 369 425 16,000  Level Boston Center
10:14AM 42.0861 -74.0989 199° South 377 434 16,100 -180 Climbing Boston Center
10:15AM 41.9875 -74.1439 199° South 377 434 15,700 -780 Descending Boston Center
10:16AM 41.8994 -74.1806 197° South 377 434 14,600 -1,440 Descending Boston Center
10:17AM 41.7922 -74.2306 199° South 377 434 12,900 -1,680 Descending Boston Center
10:18AM 41.7064 -74.2642 196° South 368 423 11,300 -1,500 Descending Boston Center
10:19AM 41.6161 -74.3033 198° South 344 396 9,900 -1,440 Descending Boston Center
10:20AM 41.5531 -74.3292 197° South 285 328 8,500 -1,140 Descending Boston Center
10:21AM 41.4333 -74.3833 199° South 269 310 7,000 -600 Descending New York TRACON
10:22AM 41.3500 -74.4167 197° South 270 311 7,000 -360 Level New York TRACON
10:23AM 41.2833 -74.4500 201° Southwest 270 311 6,300 -540 Descending New York TRACON
10:24AM 41.2167 -74.4833 201° Southwest 266 306 6,000 -180 Descending New York TRACON
10:25AM 41.1333 -74.5167 197° South 279 321 6,000  Level New York TRACON
10:26AM 41.0667 -74.5333 191° South 274 315 6,000  Level New York TRACON
10:27AM 41.0000 -74.5500 191° South 275 316 6,000  Level New York TRACON
10:28AM 40.9333 -74.5667 191° South 266 306 6,000 -60 Level New York TRACON
10:29AM 40.8500 -74.5667 180° South 268 308 5,900 -480 Descending New York TRACON
10:30AM 40.7833 -74.5667 180° South 264 304 5,100 -480 Descending New York TRACON
10:31AM 40.7000 -74.5500 171° South 265 305 5,000 -60 Descending New York TRACON
10:32AM 40.6333 -74.5000 150° Southeast 269 310 5,000 -300 Level New York TRACON
10:33AM 40.5833 -74.4667 153° Southeast 273 314 4,500 -840 Descending New York TRACON
10:34AM 40.5167 -74.4167 150° Southeast 247 284 3,500 -840 Descending New York TRACON
10:35AM 40.5000 -74.3500 108° East 228 262 3,000 -300 Descending New York TRACON
10:36AM 40.5167 -74.2833 72° East 177 204 3,000 -60 Level New York TRACON
10:37AM 40.5667 -74.2500 27° Northeast 177 204 2,900 -540 Descending New York TRACON
10:38AM 40.6000 -74.2333 21° North 177 204 2,000 -960 Descending New York TRACON
10:39AM 40.6333 -74.2000 37° Northeast 135 155 1,200 -900 Descending New York TRACON